Appleyard, Washington
Current Conditions -  °F | °C
As of 12:10 PM on Wednesday 26 Nov 2014 (Local Time) from KEAT Reporting Station
Overcast Overcast  
Wind Chill: 36°   Ceiling: 900
Heat Index: 39°   Visibility: 10mi
Dew Point: 34°   Wind: 5mph
Humidity: 82%   Direction: 250°WSW
Pressure: 30.15"   Gusts: NA
Location:  47.3635°N, 120.348°W
Report Text: KEAT 262010Z AUTO 25004KT 10SM OVC009 04/01 A3015 RMK AO2 T00390011
Loading
Personal Weather Stations






























Interactive Weather Map New forecast layout! Learn more

10-Day Weather Forecast

Advertisements
Track Severe Weather on mobile